Time;durP1;ratioP1;P1;durP2;ratioP2;P2;SDS_P1;SDS_P2;PMS_P1;PMS_P2;Temp;Humidity;BMP_temperature;BMP_pressure;BME280_temperature;BME280_humidity;BME280_pressure;Samples;Min_cycle;Max_cycle;Signal;HPM_P1;HPM_P2
2023/12/28 00:01:33;;;;;;;4.07;1.60;;;8.90;99.90;;;10.42;92.41;100034.47;5061815;28;20033;-80
2023/12/28 00:03:59;;;;;;;4.28;1.50;;;9.00;99.90;;;10.56;94.97;100031.56;5049300;28;20060;-80
2023/12/28 00:06:24;;;;;;;4.20;1.42;;;9.00;99.90;;;10.39;98.03;100028.63;5069629;28;20384;-79
2023/12/28 00:08:50;;;;;;;4.65;1.52;;;9.00;99.90;;;10.32;98.60;100025.97;5069672;28;20404;-80
2023/12/28 00:11:16;;;;;;;4.97;1.70;;;8.90;99.90;;;10.42;97.42;100011.81;5071523;28;20055;-80
2023/12/28 00:13:42;;;;;;;4.60;1.30;;;8.80;99.90;;;10.41;95.82;100007.44;5065804;28;20044;-80
2023/12/28 00:16:07;;;;;;;3.88;1.52;;;8.90;99.90;;;10.52;95.78;100003.06;5055351;28;20052;-80
2023/12/28 00:18:33;;;;;;;4.25;1.48;;;9.00;99.90;;;10.63;94.88;100008.56;5071326;28;20035;-79
2023/12/28 00:20:59;;;;;;;4.20;1.42;;;9.00;99.90;;;10.63;95.82;100005.03;5068096;28;20447;-79
2023/12/28 00:23:25;;;;;;;3.00;1.45;;;9.10;99.90;;;10.80;94.79;99991.53;5066206;28;20029;-79
2023/12/28 00:25:50;;;;;;;4.13;1.60;;;9.10;99.90;;;10.77;95.00;99998.28;5063382;28;20041;-79
2023/12/28 00:28:16;;;;;;;3.20;1.67;;;9.10;99.90;;;10.57;94.07;99970.47;5071441;28;20040;-80
2023/12/28 00:30:42;;;;;;;6.93;1.73;;;9.20;99.90;;;10.76;95.10;100007.53;5036812;28;20033;-79
2023/12/28 00:33:08;;;;;;;4.40;1.48;;;9.30;99.90;;;10.72;95.64;100047.28;5071658;28;20503;-80
2023/12/28 00:35:33;;;;;;;3.95;1.50;;;9.50;99.90;;;10.89;95.94;100054.81;5066999;28;20047;-79
2023/12/28 00:37:59;;;;;;;4.95;1.40;;;9.50;99.90;;;10.71;96.53;100055.69;5059155;28;20037;-80
2023/12/28 00:40:25;;;;;;;4.88;1.67;;;9.50;99.90;;;10.67;98.61;100047.13;5039267;28;20123;-80
2023/12/28 00:42:50;;;;;;;4.55;1.40;;;9.50;99.90;;;10.85;99.70;100080.88;5063718;28;20361;-80
2023/12/28 00:45:16;;;;;;;3.53;1.60;;;9.60;99.90;;;10.77;100.00;100082.06;5062491;28;20397;-79
2023/12/28 00:47:45;;;;;;;2.95;1.30;;;9.60;99.90;;;10.69;100.00;100082.34;5062239;28;20033;-79
2023/12/28 00:50:17;;;;;;;3.05;1.40;;;9.40;99.90;;;10.38;100.00;100087.78;5063824;28;20407;-79
2023/12/28 00:52:42;;;;;;;4.80;1.58;;;9.20;99.90;;;10.27;100.00;100096.72;5055840;28;20127;-79
2023/12/28 00:55:10;;;;;;;2.63;1.52;;;9.00;99.90;;;10.17;100.00;100095.38;5071258;28;20035;-79
2023/12/28 00:57:35;;;;;;;4.00;1.83;;;8.90;99.90;;;10.11;100.00;100114.50;5071366;28;20036;-79
2023/12/28 01:00:01;;;;;;;5.55;1.83;;;8.80;99.90;;;10.05;100.00;100092.56;5036108;28;20045;-78
2023/12/28 01:02:27;;;;;;;5.32;1.65;;;8.80;99.90;;;10.07;100.00;100097.78;5049929;28;20032;-79
2023/12/28 01:04:53;;;;;;;4.55;1.60;;;8.70;99.90;;;10.04;100.00;100109.13;5064926;28;20060;-78
2023/12/28 01:07:19;;;;;;;6.88;1.80;;;8.70;99.90;;;9.98;100.00;100097.25;5066580;28;20231;-79
2023/12/28 01:09:45;;;;;;;4.82;1.60;;;8.60;99.90;;;9.86;100.00;100112.69;5052279;28;20042;-79
2023/12/28 01:12:10;;;;;;;5.10;1.70;;;8.50;99.90;;;9.82;100.00;100098.69;5052393;28;20442;-78
2023/12/28 01:14:36;;;;;;;4.57;1.70;;;8.50;99.90;;;9.44;100.00;100118.72;5053644;28;20078;-78
2023/12/28 01:17:02;;;;;;;5.18;1.73;;;8.30;99.90;;;9.47;100.00;100132.72;5070391;28;20391;-77
2023/12/28 01:19:27;;;;;;;5.55;1.65;;;8.20;99.90;;;9.36;100.00;100144.31;5056684;28;20388;-78
2023/12/28 01:21:53;;;;;;;3.20;1.52;;;8.00;99.90;;;9.11;100.00;100138.88;5052094;28;20040;-79
2023/12/28 01:24:19;;;;;;;5.18;1.92;;;8.00;99.90;;;9.06;100.00;100132.19;5050474;28;20670;-77
2023/12/28 01:26:45;;;;;;;4.13;1.70;;;7.90;99.90;;;9.13;100.00;100137.56;5070072;28;20146;-77
2023/12/28 01:29:11;;;;;;;6.05;1.80;;;7.80;99.90;;;8.92;100.00;100150.50;5067702;28;20076;-77
2023/12/28 01:31:38;;;;;;;4.07;1.67;;;7.70;99.90;;;9.01;100.00;100148.31;5066358;28;20661;-77
2023/12/28 01:34:04;;;;;;;6.32;2.13;;;7.80;99.90;;;8.84;100.00;100139.84;5067882;28;20044;-77
2023/12/28 01:36:30;;;;;;;5.55;2.25;;;7.80;99.90;;;9.15;100.00;100119.16;5069413;28;20073;-78
2023/12/28 01:38:56;;;;;;;3.78;1.80;;;7.80;99.90;;;9.13;100.00;100131.31;5062373;28;20093;-76
2023/12/28 01:41:21;;;;;;;5.32;1.75;;;7.80;99.90;;;9.25;100.00;100124.09;5068585;28;20036;-78
2023/12/28 01:43:47;;;;;;;3.28;2.00;;;7.80;99.90;;;9.13;100.00;100112.25;5070616;28;20041;-78
2023/12/28 01:46:21;;;;;;;5.53;1.75;;;7.90;99.90;;;9.32;100.00;100124.06;5051121;28;20032;-78
2023/12/28 01:48:50;;;;;;;3.78;1.65;;;8.00;99.90;;;9.40;100.00;100125.66;5049872;28;20037;-77
2023/12/28 01:51:17;;;;;;;3.90;1.50;;;8.00;99.90;;;9.48;100.00;100131.69;5050132;28;20060;-77
2023/12/28 01:53:49;;;;;;;3.60;1.80;;;8.10;99.90;;;9.54;100.00;100137.28;5049798;28;20067;-76
2023/12/28 01:56:17;;;;;;;8.70;1.80;;;8.10;99.90;;;9.59;100.00;100129.28;5066350;28;20127;-76
2023/12/28 01:58:46;;;;;;;4.75;1.85;;;8.10;99.90;;;9.59;100.00;100151.91;5049815;28;20037;-76
2023/12/28 02:01:12;;;;;;;3.70;1.60;;;8.10;99.90;;;9.31;100.00;100115.06;5051597;28;20025;-76
2023/12/28 02:03:39;;;;;;;5.03;1.75;;;8.10;99.90;;;9.24;100.00;100124.31;5049514;28;20051;-77
2023/12/28 02:06:07;;;;;;;5.05;1.70;;;8.10;99.90;;;9.33;100.00;100145.63;5067521;28;20115;-77
2023/12/28 02:08:32;;;;;;;4.25;1.88;;;8.10;99.90;;;9.20;100.00;100153.88;5065230;28;20469;-77
2023/12/28 02:10:59;;;;;;;4.00;1.90;;;8.10;99.90;;;9.59;100.00;100132.00;5064993;28;20024;-77
2023/12/28 02:13:25;;;;;;;6.22;1.85;;;8.20;99.90;;;9.58;100.00;100127.59;5046652;28;20036;-77
2023/12/28 02:16:31;;;;;;;4.57;2.13;;;8.20;99.90;;;9.67;100.00;100149.94;5067431;28;20114;-76
2023/12/28 02:19:07;;;;;;;3.25;2.13;;;8.20;99.90;;;9.68;100.00;100127.94;5039214;28;20108;-76
2023/12/28 02:21:34;;;;;;;4.68;1.77;;;8.30;99.90;;;9.67;100.00;100156.22;5048698;28;20032;-78
2023/12/28 02:23:59;;;;;;;5.22;1.70;;;8.30;99.90;;;9.63;100.00;100135.94;5047677;28;20036;-78
2023/12/28 02:26:25;;;;;;;6.45;1.92;;;8.20;99.90;;;9.52;100.00;100140.22;5064477;28;20036;-78
2023/12/28 02:28:51;;;;;;;5.25;2.05;;;8.30;99.90;;;9.62;100.00;100151.47;5049491;28;20157;-78
2023/12/28 02:31:42;;;;;;;4.13;1.80;;;8.30;99.90;;;9.68;100.00;100148.91;5065540;28;20028;-78
2023/12/28 02:34:25;;;;;;;4.20;1.75;;;8.40;99.90;;;9.69;100.00;100156.00;5050480;28;20036;-78
2023/12/28 02:36:53;;;;;;;4.75;1.88;;;8.50;99.90;;;9.67;100.00;100158.13;5047647;28;20127;-78
2023/12/28 02:39:20;;;;;;;3.58;1.80;;;8.50;99.90;;;9.84;100.00;100142.88;5051036;28;20468;-77
2023/12/28 02:41:46;;;;;;;3.95;1.88;;;8.50;99.90;;;9.78;100.00;100154.66;5041100;28;20470;-76
2023/12/28 02:44:13;;;;;;;4.00;2.00;;;8.50;99.90;;;9.79;100.00;100156.31;5069428;28;20040;-76
2023/12/28 02:46:39;;;;;;;5.22;1.80;;;8.50;99.90;;;9.78;100.00;100166.41;5051837;28;20039;-76
2023/12/28 02:49:05;;;;;;;4.22;2.47;;;8.50;99.90;;;9.90;100.00;100161.06;5072385;28;20711;-76
2023/12/28 02:51:32;;;;;;;7.80;2.00;;;8.50;99.90;;;9.82;100.00;100157.78;5073639;28;20802;-77
2023/12/28 02:53:58;;;;;;;5.63;2.10;;;8.60;99.90;;;9.93;100.00;100162.47;5041558;28;20064;-76
2023/12/28 02:56:23;;;;;;;4.38;1.90;;;8.50;99.90;;;9.97;100.00;100157.44;5066283;28;20035;-76
2023/12/28 02:58:49;;;;;;;4.57;1.92;;;8.50;99.90;;;9.84;100.00;100158.38;5054713;28;20041;-77
2023/12/28 03:01:15;;;;;;;3.40;1.83;;;8.50;99.90;;;9.92;100.00;100161.66;5037574;28;20033;-76
2023/12/28 03:03:40;;;;;;;4.30;2.20;;;8.60;99.90;;;10.12;100.00;100155.19;5037932;28;20033;-76
2023/12/28 03:06:06;;;;;;;4.53;2.10;;;8.60;99.90;;;10.28;100.00;100170.09;5044873;28;20107;-78
2023/12/28 03:08:32;;;;;;;4.35;1.85;;;8.70;99.90;;;10.13;100.00;100161.44;5072477;28;20098;-77
2023/12/28 03:10:58;;;;;;;4.25;2.10;;;8.70;99.90;;;10.14;100.00;100169.41;5073077;28;20353;-78
2023/12/28 03:13:23;;;;;;;3.20;1.60;;;8.70;99.90;;;10.09;100.00;100150.19;5061642;28;20373;-78
2023/12/28 03:15:49;;;;;;;4.55;2.13;;;8.80;99.90;;;10.22;100.00;100143.75;5064730;28;20058;-77
2023/12/28 03:18:15;;;;;;;4.30;1.83;;;8.80;99.90;;;10.26;100.00;100152.31;5067701;28;20059;-77
2023/12/28 03:20:40;;;;;;;3.58;2.00;;;8.70;99.90;;;10.29;100.00;100151.84;5049857;28;20040;-78
2023/12/28 03:23:06;;;;;;;3.67;2.20;;;8.70;99.90;;;10.16;100.00;100156.41;5068860;28;20069;-77
2023/12/28 03:25:32;;;;;;;5.40;2.05;;;8.80;99.90;;;10.29;100.00;100158.16;5071584;28;20158;-77
2023/12/28 03:27:57;;;;;;;4.32;1.85;;;8.80;99.90;;;10.38;100.00;100150.50;5070165;28;20045;-77
2023/12/28 03:30:23;;;;;;;5.57;1.98;;;8.80;99.90;;;10.33;100.00;100144.88;5068117;28;20028;-78
2023/12/28 03:32:49;;;;;;;5.47;1.70;;;8.80;99.90;;;10.39;100.00;100143.97;5066695;28;20407;-77
2023/12/28 03:35:17;;;;;;;4.50;2.05;;;8.90;99.90;;;10.38;100.00;100142.31;5054038;28;20039;-77
2023/12/28 03:37:43;;;;;;;5.63;2.13;;;8.90;99.90;;;10.46;100.00;100149.38;5054492;28;20037;-77
2023/12/28 03:40:09;;;;;;;3.17;1.90;;;8.90;99.90;;;10.47;100.00;100154.59;5072562;28;20044;-78
2023/12/28 03:42:35;;;;;;;3.85;1.77;;;8.90;99.90;;;10.52;100.00;100142.19;5043840;28;20078;-77
2023/12/28 03:45:00;;;;;;;4.18;1.92;;;9.00;99.90;;;10.50;100.00;100140.50;5059144;28;20048;-78
2023/12/28 03:47:26;;;;;;;4.57;2.42;;;9.00;99.90;;;10.41;100.00;100141.03;5052396;28;20066;-77
2023/12/28 03:49:52;;;;;;;3.95;1.75;;;9.00;99.90;;;10.46;100.00;100158.41;5062950;28;20041;-77
2023/12/28 03:52:18;;;;;;;5.07;1.83;;;9.00;99.90;;;10.64;100.00;100140.34;5064911;28;20040;-77
2023/12/28 03:54:43;;;;;;;5.03;2.10;;;9.00;99.90;;;10.73;100.00;100155.34;5041940;28;20033;-78
2023/12/28 03:57:10;;;;;;;3.65;1.95;;;9.00;99.90;;;10.66;100.00;100146.41;5072297;28;20032;-77
2023/12/28 03:59:36;;;;;;;3.65;1.85;;;9.00;99.90;;;10.59;100.00;100165.59;5063807;28;20035;-77
2023/12/28 04:02:01;;;;;;;3.40;1.75;;;9.00;99.90;;;10.47;100.00;100151.88;5063998;28;20041;-77
2023/12/28 04:04:27;;;;;;;4.15;1.75;;;9.00;99.90;;;10.56;100.00;100162.47;5050451;28;20052;-78
2023/12/28 04:06:53;;;;;;;4.70;1.90;;;9.00;99.90;;;10.68;100.00;100168.84;5042057;28;20041;-78
2023/12/28 04:09:19;;;;;;;5.13;2.15;;;9.00;99.90;;;10.61;100.00;100177.09;5057849;28;20044;-76
2023/12/28 04:11:46;;;;;;;3.75;1.85;;;9.10;99.90;;;10.70;100.00;100166.72;5066538;28;20032;-76
2023/12/28 04:14:11;;;;;;;3.78;1.95;;;9.10;99.90;;;10.57;100.00;100166.88;5050184;28;20185;-77
2023/12/28 04:16:37;;;;;;;4.30;1.80;;;9.20;99.90;;;10.87;100.00;100168.78;5070432;28;20063;-76
2023/12/28 04:19:03;;;;;;;4.45;1.80;;;9.20;99.90;;;10.73;100.00;100155.34;5040561;28;20075;-77
2023/12/28 04:21:28;;;;;;;3.33;1.60;;;9.20;99.90;;;10.79;100.00;100170.78;5033469;28;20045;-77
2023/12/28 04:23:54;;;;;;;3.95;1.95;;;9.30;99.90;;;10.91;100.00;100170.84;5057720;28;20071;-77
2023/12/28 04:26:20;;;;;;;4.63;1.90;;;9.30;99.90;;;10.95;100.00;100165.75;5042623;28;20036;-77
2023/12/28 04:28:46;;;;;;;4.40;1.75;;;9.40;99.90;;;10.79;100.00;100162.59;5064966;28;20044;-77
2023/12/28 04:31:11;;;;;;;5.55;2.05;;;9.50;99.90;;;11.00;100.00;100165.03;5041029;28;20049;-78
2023/12/28 04:33:37;;;;;;;4.68;1.70;;;9.50;99.90;;;11.09;100.00;100169.13;5070109;28;20038;-77
2023/12/28 04:36:05;;;;;;;3.30;1.70;;;9.50;99.90;;;11.03;100.00;100170.06;5069813;28;20039;-78
2023/12/28 04:38:31;;;;;;;3.88;1.80;;;9.50;99.90;;;10.93;100.00;100170.63;5037735;28;20029;-78
2023/12/28 04:41:01;;;;;;;3.50;1.88;;;9.50;99.90;;;11.04;100.00;100150.72;5070106;28;20060;-76
2023/12/28 04:43:27;;;;;;;5.22;2.08;;;9.60;99.90;;;11.07;100.00;100176.72;5069786;28;20549;-77
2023/12/28 04:45:52;;;;;;;5.15;1.70;;;9.60;99.90;;;11.19;100.00;100169.41;5059919;28;20183;-76
2023/12/28 04:48:23;;;;;;;5.55;2.00;;;9.60;99.90;;;11.07;100.00;100171.25;5040240;28;20044;-77
2023/12/28 04:50:50;;;;;;;4.43;2.00;;;9.60;99.90;;;11.05;100.00;100163.28;5059501;28;20078;-77
2023/12/28 04:53:16;;;;;;;5.53;1.90;;;9.60;99.90;;;11.20;100.00;100175.69;5060182;28;20120;-77
2023/12/28 04:55:42;;;;;;;4.68;1.90;;;9.60;99.90;;;11.25;100.00;100153.97;5069570;28;20032;-77
2023/12/28 04:58:07;;;;;;;4.57;1.63;;;9.70;99.90;;;11.37;100.00;100170.41;5058894;28;20036;-77
2023/12/28 05:00:33;;;;;;;4.13;1.88;;;9.70;99.90;;;11.15;100.00;100167.38;5060514;28;20033;-78
2023/12/28 05:02:59;;;;;;;4.32;1.73;;;9.70;99.90;;;11.22;100.00;100163.47;5064245;28;20450;-76
2023/12/28 05:05:24;;;;;;;4.38;1.80;;;9.70;99.90;;;11.18;100.00;100169.66;5052430;28;20037;-76
2023/12/28 05:07:50;;;;;;;4.15;1.83;;;9.70;99.90;;;11.11;100.00;100180.66;5059041;28;20078;-78
2023/12/28 05:10:16;;;;;;;3.72;1.70;;;9.70;99.90;;;11.19;100.00;100169.41;5052403;28;20048;-76
2023/12/28 05:12:42;;;;;;;3.55;1.70;;;9.80;99.90;;;11.38;100.00;100183.00;5038498;28;20063;-77
2023/12/28 05:15:08;;;;;;;6.75;1.92;;;9.80;99.90;;;11.39;100.00;100181.91;5058789;28;20032;-76
2023/12/28 05:17:34;;;;;;;4.70;1.50;;;9.80;99.90;;;11.43;100.00;100177.66;5064701;28;20039;-76
2023/12/28 05:19:59;;;;;;;4.60;1.90;;;9.80;99.90;;;11.46;100.00;100188.09;5061387;28;20045;-78
2023/12/28 05:22:25;;;;;;;3.88;1.70;;;9.80;99.90;;;11.20;100.00;100175.69;5055447;28;20036;-78
2023/12/28 05:24:51;;;;;;;4.78;1.45;;;9.80;99.90;;;11.15;100.00;100183.75;5064884;28;20047;-77
2023/12/28 05:27:17;;;;;;;3.45;1.33;;;9.70;99.90;;;11.22;100.00;100190.78;5070539;28;20114;-79
2023/12/28 05:29:42;;;;;;;3.30;1.50;;;9.70;99.90;;;11.20;100.00;100189.34;5070417;28;20032;-77
2023/12/28 05:32:08;;;;;;;3.15;1.55;;;9.70;99.90;;;11.18;100.00;100184.09;5066522;28;20040;-77
2023/12/28 05:34:34;;;;;;;4.78;1.58;;;9.70;99.90;;;11.21;100.00;100170.00;5067716;28;20107;-77
2023/12/28 05:37:00;;;;;;;4.70;1.80;;;9.70;99.90;;;10.93;100.00;100167.88;5064042;28;20404;-78
2023/12/28 05:39:26;;;;;;;4.47;2.00;;;9.70;99.90;;;10.94;100.00;100180.47;5058335;28;20029;-77
2023/12/28 05:41:51;;;;;;;3.97;1.73;;;9.60;99.90;;;10.94;100.00;100183.19;5068304;28;20044;-78
2023/12/28 05:44:17;;;;;;;3.20;1.50;;;9.60;99.90;;;11.09;100.00;100182.78;5070266;28;20070;-79
2023/12/28 05:46:43;;;;;;;3.03;1.48;;;9.60;99.90;;;10.96;100.00;100178.34;5064680;28;20171;-78
2023/12/28 05:49:09;;;;;;;3.45;1.50;;;9.60;99.90;;;11.20;100.00;100186.63;5060928;28;20079;-83
2023/12/28 05:51:42;;;;;;;3.95;1.70;;;9.60;99.90;;;11.14;100.00;100161.06;5067091;28;20057;-79
2023/12/28 05:54:08;;;;;;;5.20;1.52;;;9.70;99.90;;;11.30;100.00;100203.25;5058603;28;20033;-78
2023/12/28 05:56:34;;;;;;;5.60;1.50;;;9.80;99.90;;;11.24;100.00;100198.75;5058461;28;20028;-77
2023/12/28 05:59:00;;;;;;;5.47;1.98;;;9.80;99.90;;;11.26;100.00;100188.41;5056553;28;20094;-77
2023/12/28 06:01:27;;;;;;;4.72;1.80;;;9.80;99.90;;;11.33;100.00;100200.06;5066010;28;20036;-77
2023/12/28 06:03:53;;;;;;;4.80;1.83;;;9.80;99.90;;;11.36;100.00;100199.59;5069801;28;20482;-78
2023/12/28 06:06:20;;;;;;;3.38;1.42;;;9.90;99.90;;;11.43;100.00;100196.78;5065811;28;20116;-77
2023/12/28 06:08:46;;;;;;;4.10;1.73;;;9.90;99.90;;;11.41;100.00;100192.63;5067082;28;20043;-77
2023/12/28 06:11:12;;;;;;;6.03;1.55;;;10.00;99.90;;;11.42;100.00;100197.84;5066260;28;20036;-77
2023/12/28 06:13:37;;;;;;;4.50;1.60;;;10.00;99.90;;;11.41;100.00;100200.81;5063839;28;20545;-77
2023/12/28 06:16:03;;;;;;;2.17;1.20;;;10.00;99.90;;;11.22;100.00;100196.22;5067662;28;20077;-77
2023/12/28 06:18:29;;;;;;;4.57;1.58;;;10.00;99.90;;;11.49;100.00;100192.28;5062818;28;20044;-77
2023/12/28 06:20:55;;;;;;;3.33;1.52;;;10.10;99.90;;;11.59;100.00;100206.19;5064299;28;20604;-77
2023/12/28 06:23:21;;;;;;;4.90;1.35;;;10.20;99.90;;;11.58;100.00;100223.66;5066914;28;20036;-77
2023/12/28 06:25:46;;;;;;;4.57;1.50;;;10.10;99.90;;;11.44;100.00;100214.81;5067055;28;20049;-77
2023/12/28 06:28:12;;;;;;;3.35;1.48;;;10.10;99.90;;;11.43;100.00;100210.44;5067216;28;20048;-77
2023/12/28 06:30:39;;;;;;;4.25;1.55;;;10.10;99.90;;;11.63;100.00;100201.91;5067717;28;20028;-77
2023/12/28 06:33:05;;;;;;;5.18;1.38;;;10.10;99.90;;;11.57;100.00;100202.84;5068794;28;20060;-77
2023/12/28 06:35:31;;;;;;;4.50;1.35;;;10.10;99.90;;;11.43;100.00;100187.75;5062507;28;20052;-77
2023/12/28 06:37:56;;;;;;;5.40;1.23;;;10.10;99.90;;;11.65;100.00;100209.88;5058192;28;20408;-78
2023/12/28 06:40:22;;;;;;;3.88;1.77;;;10.00;99.90;;;11.56;100.00;100212.13;5058220;28;20097;-77
2023/12/28 06:42:48;;;;;;;3.72;1.25;;;10.00;99.90;;;11.43;100.00;100217.81;5063224;28;20392;-76
2023/12/28 06:45:14;;;;;;;4.28;1.35;;;10.00;99.90;;;11.29;100.00;100208.97;5056592;28;20040;-77
2023/12/28 06:47:39;;;;;;;6.07;1.65;;;9.90;99.90;;;11.31;100.00;100209.56;5069230;28;20045;-78
2023/12/28 06:50:06;;;;;;;3.67;1.50;;;10.00;99.90;;;11.51;100.00;100236.59;5069519;28;20055;-79
2023/12/28 06:52:32;;;;;;;3.25;1.42;;;10.00;99.90;;;11.52;100.00;100239.06;5058953;28;20484;-78
2023/12/28 06:54:59;;;;;;;3.53;1.58;;;10.10;99.90;;;11.55;100.00;100236.97;5061410;28;20025;-78
2023/12/28 06:57:24;;;;;;;4.45;1.30;;;10.10;99.90;;;11.57;100.00;100224.72;5065548;28;20541;-78
2023/12/28 06:59:50;;;;;;;2.58;1.15;;;10.20;99.90;;;11.62;100.00;100226.75;5059654;28;20049;-78
2023/12/28 07:02:16;;;;;;;6.63;1.50;;;10.30;99.90;;;11.50;100.00;100221.25;5051224;28;20041;-78
2023/12/28 07:04:41;;;;;;;3.15;1.20;;;10.30;99.90;;;11.64;100.00;100213.69;5066963;28;20044;-79
2023/12/28 07:07:07;;;;;;;5.22;1.30;;;10.30;99.90;;;11.64;100.00;100252.75;5069321;28;20040;-79
2023/12/28 07:09:33;;;;;;;3.58;1.42;;;10.30;99.90;;;11.70;100.00;100233.78;5044581;28;20454;-79
2023/12/28 07:11:59;;;;;;;4.28;1.60;;;10.30;99.90;;;11.70;100.00;100233.78;5061615;28;20037;-78
2023/12/28 07:14:25;;;;;;;4.05;1.45;;;10.20;99.90;;;11.70;100.00;100253.72;5057325;28;20040;-79
2023/12/28 07:16:50;;;;;;;4.50;1.50;;;10.30;99.90;;;11.78;100.00;100247.09;5063819;28;20048;-79
2023/12/28 07:19:16;;;;;;;7.05;1.35;;;10.20;99.90;;;11.71;100.00;100246.38;5069308;28;20028;-80
2023/12/28 07:21:42;;;;;;;5.60;1.52;;;10.30;99.90;;;11.73;100.00;100298.91;5037550;28;20037;-79
2023/12/28 07:24:07;;;;;;;3.03;1.30;;;10.40;99.90;;;11.55;100.00;100259.63;5068670;28;20063;-78
2023/12/28 07:26:33;;;;;;;4.30;1.38;;;10.40;99.90;;;11.36;100.00;100254.22;5058098;28;20040;-77
2023/12/28 07:28:59;;;;;;;6.80;1.30;;;10.40;99.90;;;11.34;100.00;100258.25;5038405;28;20053;-80
2023/12/28 07:31:26;;;;;;;4.78;1.38;;;10.30;99.90;;;11.55;100.00;100254.16;5066826;28;20039;-78
2023/12/28 07:33:52;;;;;;;3.80;1.20;;;10.30;99.90;;;11.47;100.00;100249.88;5069008;28;20058;-77
2023/12/28 07:36:18;;;;;;;2.85;1.42;;;10.30;99.90;;;11.43;100.00;100277.91;5067741;28;20041;-77
2023/12/28 07:38:44;;;;;;;4.38;1.23;;;10.30;99.90;;;11.63;100.00;100256.56;5071491;28;20168;-79
2023/12/28 07:41:10;;;;;;;3.80;1.30;;;10.30;99.90;;;11.61;100.00;100280.56;5070879;28;20041;-77
2023/12/28 07:43:36;;;;;;;4.88;1.75;;;10.30;99.90;;;11.35;100.00;100258.00;5070937;28;20553;-78
2023/12/28 07:46:03;;;;;;;3.50;1.20;;;10.30;99.90;;;11.86;100.00;100265.06;5069844;28;20037;-79
2023/12/28 07:48:30;;;;;;;5.78;1.60;;;10.40;99.90;;;11.99;100.00;100262.09;5037680;28;20072;-78
2023/12/28 07:50:57;;;;;;;5.57;1.35;;;10.40;99.90;;;11.82;100.00;100261.16;5066617;28;20037;-77
2023/12/28 07:53:23;;;;;;;6.00;1.58;;;10.40;99.90;;;11.59;100.00;100268.22;5047773;28;20067;-76
2023/12/28 07:55:48;;;;;;;5.72;1.55;;;10.30;99.90;;;11.70;100.00;100266.56;5072083;28;20052;-78
2023/12/28 07:58:15;;;;;;;6.70;1.58;;;10.30;99.90;;;11.58;100.00;100274.75;5053899;28;20090;-77
2023/12/28 08:00:41;;;;;;;3.78;1.20;;;10.30;99.90;;;11.51;100.00;100278.38;5072670;28;20052;-77
2023/12/28 08:03:06;;;;;;;4.68;1.35;;;10.20;99.90;;;11.63;100.00;100275.69;5049501;28;20507;-77
2023/12/28 08:05:32;;;;;;;4.85;1.40;;;10.30;99.90;;;11.84;100.00;100280.88;5071892;28;20538;-77
2023/12/28 08:07:58;;;;;;;4.78;1.30;;;10.20;99.90;;;11.55;100.00;100259.63;5063340;28;20377;-77
2023/12/28 08:10:23;;;;;;;4.05;1.20;;;10.20;99.90;;;11.79;100.00;100267.91;5041872;28;20036;-77
2023/12/28 08:12:49;;;;;;;3.22;1.20;;;10.30;99.90;;;11.72;100.00;100275.38;5062246;28;20432;-77
2023/12/28 08:15:15;;;;;;;5.00;1.48;;;10.20;99.90;;;11.76;100.00;100284.75;5063046;28;20059;-77
2023/12/28 08:17:40;;;;;;;3.90;1.58;;;10.20;99.90;;;11.69;100.00;100295.78;5037759;28;20448;-78
2023/12/28 08:20:07;;;;;;;5.20;1.65;;;10.10;99.90;;;11.75;100.00;100280.38;5052167;28;20037;-77
2023/12/28 08:22:33;;;;;;;3.47;1.58;;;10.10;99.90;;;11.82;100.00;100292.03;5063412;28;20091;-77
2023/12/28 08:24:59;;;;;;;5.10;1.33;;;10.10;99.90;;;11.65;100.00;100295.41;5063634;28;20060;-77
2023/12/28 08:27:24;;;;;;;2.38;1.10;;;10.00;99.90;;;11.68;100.00;100312.44;5062137;28;20032;-77
2023/12/28 08:29:50;;;;;;;3.22;1.40;;;10.00;99.90;;;11.80;100.00;100300.47;5068006;28;20395;-78
2023/12/28 08:32:17;;;;;;;3.90;1.52;;;10.00;99.90;;;11.87;100.00;100292.16;5061446;28;20025;-77
2023/12/28 08:34:43;;;;;;;4.43;1.35;;;10.00;99.90;;;11.78;100.00;100307.22;5069473;28;20086;-77
2023/12/28 08:37:09;;;;;;;4.00;1.30;;;10.10;99.90;;;11.78;100.00;100291.66;5065132;28;20384;-77
2023/12/28 08:39:34;;;;;;;4.32;1.48;;;10.10;99.90;;;11.82;100.00;100318.53;5064732;28;20047;-77
2023/12/28 08:42:00;;;;;;;4.60;1.50;;;10.10;99.90;;;11.94;100.00;100300.25;5069484;28;20040;-77
2023/12/28 08:44:26;;;;;;;4.95;1.63;;;10.20;99.90;;;11.78;100.00;100290.81;5053380;28;20044;-77
2023/12/28 08:46:52;;;;;;;5.95;1.45;;;10.20;99.90;;;12.00;100.00;100298.50;5064822;28;20036;-77
2023/12/28 08:49:17;;;;;;;4.60;1.35;;;10.20;99.90;;;11.69;100.00;100305.91;5070877;28;20491;-77
2023/12/28 08:51:43;;;;;;;4.53;1.60;;;10.20;99.90;;;11.91;100.00;100304.28;5071331;28;20044;-78
2023/12/28 08:54:09;;;;;;;5.25;1.60;;;10.20;99.90;;;11.81;100.00;100304.03;5045137;28;20079;-77
2023/12/28 08:56:35;;;;;;;6.13;1.92;;;10.20;99.90;;;11.92;100.00;100316.06;5055647;28;20043;-77
2023/12/28 08:59:01;;;;;;;4.85;1.27;;;10.30;99.90;;;11.90;100.00;100294.41;5064319;28;20574;-78
2023/12/28 09:01:29;;;;;;;4.35;1.17;;;10.30;99.90;;;11.89;100.00;100298.22;5052163;28;20044;-78
2023/12/28 09:03:55;;;;;;;4.85;1.42;;;10.40;99.90;;;11.97;100.00;100307.16;5066981;28;20045;-77
2023/12/28 09:06:22;;;;;;;3.70;1.60;;;10.50;99.90;;;12.18;100.00;100309.34;5071153;28;20028;-77
2023/12/28 09:08:51;;;;;;;6.30;1.27;;;10.40;99.90;;;12.21;100.00;100308.91;5070005;28;20071;-77
2023/12/28 09:11:17;;;;;;;4.03;1.60;;;10.50;99.90;;;12.00;100.00;100314.88;5056974;28;20373;-78
2023/12/28 09:13:44;;;;;;;4.88;1.20;;;10.40;99.90;;;12.15;100.00;100284.41;5062029;28;20028;-78
2023/12/28 09:16:12;;;;;;;3.20;1.23;;;10.50;99.90;;;12.30;100.00;100309.34;5063351;28;20032;-78
2023/12/28 09:18:39;;;;;;;3.45;1.30;;;10.70;99.90;;;12.16;100.00;100294.25;5062075;28;20701;-78
2023/12/28 09:21:07;;;;;;;4.72;1.30;;;10.80;99.90;;;12.44;100.00;100304.50;5053004;28;20033;-77
2023/12/28 09:23:34;;;;;;;4.22;1.40;;;10.90;99.90;;;12.57;100.00;100311.63;5069581;28;20090;-77
2023/12/28 09:26:05;;;;;;;5.82;1.63;;;11.00;99.90;;;12.61;100.00;100301.91;5067892;28;20040;-78
2023/12/28 09:28:32;;;;;;;4.35;1.38;;;11.10;99.90;;;12.60;100.00;100321.28;5047771;28;20037;-76
2023/12/28 09:30:57;;;;;;;3.60;1.60;;;11.20;99.90;;;12.80;100.00;100313.53;5052630;28;20029;-76
2023/12/28 09:33:24;;;;;;;4.38;1.73;;;11.30;99.90;;;12.95;100.00;100309.44;5062142;28;20028;-76
2023/12/28 09:35:49;;;;;;;3.30;1.30;;;11.50;99.90;;;13.12;100.00;100303.22;5064785;28;20033;-77
2023/12/28 09:38:15;;;;;;;3.47;1.20;;;11.80;99.90;;;13.35;100.00;100292.19;5069729;28;20039;-77
2023/12/28 09:40:44;;;;;;;5.03;1.30;;;12.10;99.90;;;13.24;100.00;100302.13;5063575;28;20416;-76
2023/12/28 09:43:36;;;;;;;4.57;1.30;;;12.30;99.90;;;13.78;98.02;100300.13;5065308;28;20149;-77
2023/12/28 09:46:07;;;;;;;4.22;1.30;;;12.60;99.90;;;13.15;96.65;100283.56;5070262;28;20028;-77
2023/12/28 09:48:34;;;;;;;6.47;1.40;;;12.60;99.90;;;13.54;96.99;100311.22;5064172;28;20046;-75
2023/12/28 09:51:00;;;;;;;7.25;1.25;;;12.40;99.90;;;13.94;93.42;100296.59;5070001;28;20425;-76
2023/12/28 09:53:26;;;;;;;3.30;1.30;;;12.50;99.90;;;13.33;96.15;100302.56;5070285;28;20066;-77
2023/12/28 09:55:53;;;;;;;3.83;1.50;;;12.20;99.90;;;13.02;100.00;100318.38;5069682;28;20567;-78
2023/12/28 09:58:20;;;;;;;5.30;1.50;;;11.70;99.90;;;13.01;100.00;100311.25;5063692;28;20041;-77
2023/12/28 10:00:49;;;;;;;6.80;1.58;;;11.60;99.90;;;12.69;100.00;100317.09;5058024;28;20070;-77
2023/12/28 10:03:17;;;;;;;6.95;1.52;;;11.30;99.90;;;12.86;100.00;100319.13;5061790;28;20044;-76
2023/12/28 10:05:45;;;;;;;4.47;1.77;;;11.30;99.90;;;12.76;100.00;100317.81;5032350;28;20068;-77
2023/12/28 10:08:17;;;;;;;5.93;1.60;;;11.10;99.90;;;12.64;100.00;100333.41;5043622;28;20123;-77
2023/12/28 10:10:50;;;;;;;9.57;1.65;;;11.10;99.90;;;12.71;100.00;100303.19;5039783;28;20132;-77